createdAt,value
2018-07-04T00:00:13.445Z,1001.70
2018-07-04T00:01:13.451Z,1001.68
2018-07-04T00:02:13.471Z,1001.69
2018-07-04T00:03:13.493Z,1001.69
2018-07-04T00:04:13.513Z,1001.69
2018-07-04T00:05:13.543Z,1001.66
2018-07-04T00:06:13.546Z,1001.67
2018-07-04T00:07:13.579Z,1001.69
2018-07-04T00:08:13.588Z,1001.66
2018-07-04T00:09:13.612Z,1001.64
2018-07-04T00:10:13.635Z,1001.67
2018-07-04T00:11:13.651Z,1001.66
2018-07-04T00:12:13.666Z,1001.70
2018-07-04T00:13:13.688Z,1001.69
2018-07-04T00:14:13.709Z,1001.70
2018-07-04T00:15:13.768Z,1001.66
2018-07-04T00:16:13.751Z,1001.72
2018-07-04T00:17:13.769Z,1001.70
2018-07-04T00:18:13.792Z,1001.67
2018-07-04T00:19:13.817Z,1001.70
2018-07-04T00:20:13.825Z,1001.67
2018-07-04T00:21:13.841Z,1001.67
2018-07-04T00:22:13.866Z,1001.68
2018-07-04T00:23:13.889Z,1001.67
2018-07-04T00:24:13.899Z,1001.64
2018-07-04T00:25:13.925Z,1001.69
2018-07-04T00:26:13.947Z,1001.69
2018-07-04T00:27:13.961Z,1001.69
2018-07-04T00:28:13.992Z,1001.72
2018-07-04T00:29:14.006Z,1001.70
2018-07-04T00:30:14.035Z,1001.69
2018-07-04T00:31:14.046Z,1001.70
2018-07-04T00:32:14.069Z,1001.70
2018-07-04T00:33:14.086Z,1001.72
2018-07-04T00:34:14.104Z,1001.70
2018-07-04T00:35:14.121Z,1001.70
2018-07-04T00:36:14.137Z,1001.69
2018-07-04T00:37:14.155Z,1001.70
2018-07-04T00:38:14.184Z,1001.69
2018-07-04T00:39:14.200Z,1001.69
2018-07-04T00:40:14.220Z,1001.66
2018-07-04T00:41:14.240Z,1001.69
2018-07-04T00:42:14.268Z,1001.67
2018-07-04T00:43:14.274Z,1001.67
2018-07-04T00:44:14.293Z,1001.66
2018-07-04T00:45:14.318Z,1001.61
2018-07-04T00:46:14.328Z,1001.61
2018-07-04T00:47:14.356Z,1001.59
2018-07-04T00:48:14.374Z,1001.60
2018-07-04T00:49:14.392Z,1001.61
2018-07-04T00:50:14.416Z,1001.57
2018-07-04T00:51:14.433Z,1001.59
2018-07-04T00:52:14.448Z,1001.62
2018-07-04T00:53:14.469Z,1001.58
2018-07-04T00:54:14.507Z,1001.58
2018-07-04T00:55:14.506Z,1001.57
2018-07-04T00:56:14.529Z,1001.56
2018-07-04T00:57:14.549Z,1001.59
2018-07-04T00:58:14.575Z,1001.54
2018-07-04T00:59:14.587Z,1001.54
2018-07-04T01:00:14.603Z,1001.56
2018-07-04T01:01:14.630Z,1001.52
2018-07-04T01:02:14.641Z,1001.52
2018-07-04T01:03:14.667Z,1001.50
2018-07-04T01:04:14.694Z,1001.52
2018-07-04T01:05:14.707Z,1001.50
2018-07-04T01:06:14.723Z,1001.48
2018-07-04T01:07:14.754Z,1001.53
2018-07-04T01:08:14.766Z,1001.49
2018-07-04T01:09:14.787Z,1001.52
2018-07-04T01:10:14.796Z,1001.49
2018-07-04T01:11:14.829Z,1001.50
2018-07-04T01:12:14.841Z,1001.49
2018-07-04T01:13:14.853Z,1001.48
2018-07-04T01:14:14.875Z,1001.46
2018-07-04T01:15:14.909Z,1001.45
2018-07-04T01:16:14.915Z,1001.46
2018-07-04T01:17:14.938Z,1001.44
2018-07-04T01:18:14.961Z,1001.45
2018-07-04T01:19:14.973Z,1001.46
2018-07-04T01:20:14.992Z,1001.44
2018-07-04T01:21:15.025Z,1001.43
2018-07-04T01:22:15.029Z,1001.44
2018-07-04T01:23:15.072Z,1001.42
2018-07-04T01:24:15.078Z,1001.40
2018-07-04T01:25:15.086Z,1001.41
2018-07-04T01:26:15.120Z,1001.40
2018-07-04T01:27:15.125Z,1001.41
2018-07-04T01:28:15.147Z,1001.41
2018-07-04T01:29:15.167Z,1001.42
2018-07-04T01:30:15.182Z,1001.41
2018-07-04T01:31:15.202Z,1001.38
2018-07-04T01:32:15.226Z,1001.42
2018-07-04T01:33:15.250Z,1001.39
2018-07-04T01:34:15.267Z,1001.40
2018-07-04T01:35:15.285Z,1001.41
2018-07-04T01:36:15.296Z,1001.41
2018-07-04T01:37:15.315Z,1001.42
2018-07-04T01:38:15.334Z,1001.42
2018-07-04T01:39:15.366Z,1001.44
2018-07-04T01:40:15.372Z,1001.41
2018-07-04T01:41:15.395Z,1001.40
2018-07-04T01:42:15.418Z,1001.38
2018-07-04T01:43:15.443Z,1001.38
2018-07-04T01:44:15.459Z,1001.37
2018-07-04T01:45:15.473Z,1001.36
2018-07-04T01:46:15.500Z,1001.34
2018-07-04T01:47:15.517Z,1001.35
2018-07-04T01:48:15.526Z,1001.41
2018-07-04T01:49:15.558Z,1001.39
2018-07-04T01:50:15.560Z,1001.39
2018-07-04T01:51:15.593Z,1001.40
2018-07-04T01:52:15.607Z,1001.37
2018-07-04T01:53:15.623Z,1001.40
2018-07-04T01:54:15.641Z,1001.37
2018-07-04T01:55:15.667Z,1001.35
2018-07-04T01:56:15.680Z,1001.30
2018-07-04T01:57:15.702Z,1001.31
2018-07-04T01:58:15.728Z,1001.28
2018-07-04T01:59:15.741Z,1001.28
2018-07-04T02:00:15.760Z,1001.26
2018-07-04T02:01:15.777Z,1001.28
2018-07-04T02:02:15.799Z,1001.28
2018-07-04T02:03:15.813Z,1001.27
2018-07-04T02:04:15.840Z,1001.29
2018-07-04T02:05:15.849Z,1001.30
2018-07-04T02:06:15.875Z,1001.28
2018-07-04T02:07:15.905Z,1001.30
2018-07-04T02:08:15.911Z,1001.29
2018-07-04T02:09:15.931Z,1001.33
2018-07-04T02:10:15.954Z,1001.27
2018-07-04T02:11:15.970Z,1001.26
2018-07-04T02:12:15.987Z,1001.28
2018-07-04T02:13:16.029Z,1001.26
2018-07-04T02:14:16.037Z,1001.25
2018-07-04T02:15:16.054Z,1001.26
2018-07-04T02:16:16.066Z,1001.26
2018-07-04T02:17:16.082Z,1001.25
2018-07-04T02:18:16.109Z,1001.25
2018-07-04T02:19:16.154Z,1001.25
2018-07-04T02:20:16.143Z,1001.25
2018-07-04T02:21:16.168Z,1001.25
2018-07-04T02:22:16.179Z,1001.28
2018-07-04T02:23:16.197Z,1001.28
2018-07-04T02:24:16.216Z,1001.31
2018-07-04T02:25:16.234Z,1001.29
2018-07-04T02:26:16.264Z,1001.30
2018-07-04T02:27:16.280Z,1001.30
2018-07-04T02:28:16.304Z,1001.26
2018-07-04T02:29:16.313Z,1001.27
2018-07-04T02:30:16.351Z,1001.25
2018-07-04T02:31:16.358Z,1001.22
2018-07-04T02:32:16.380Z,1001.26
2018-07-04T02:33:16.387Z,1001.25
2018-07-04T02:34:16.412Z,1001.24
2018-07-04T02:35:16.425Z,1001.28
2018-07-04T02:36:16.450Z,1001.24
2018-07-04T02:37:16.462Z,1001.22
2018-07-04T02:38:16.494Z,1001.24
2018-07-04T02:39:16.502Z,1001.24
2018-07-04T02:40:16.522Z,1001.22
2018-07-04T02:41:16.545Z,1001.24
2018-07-04T02:42:16.562Z,1001.20
2018-07-04T02:43:16.586Z,1001.21
2018-07-04T02:44:16.605Z,1001.22
2018-07-04T02:45:16.625Z,1001.21
2018-07-04T02:46:16.637Z,1001.19
2018-07-04T02:47:16.657Z,1001.20
2018-07-04T02:48:16.674Z,1001.23
2018-07-04T02:49:16.696Z,1001.17
2018-07-04T02:50:16.713Z,1001.20
2018-07-04T02:51:16.733Z,1001.19
2018-07-04T02:52:16.749Z,1001.21
2018-07-04T02:53:16.769Z,1001.19
2018-07-04T02:54:16.803Z,1001.20
2018-07-04T02:55:16.808Z,1001.21
2018-07-04T02:56:16.831Z,1001.21
2018-07-04T02:57:16.856Z,1001.19
2018-07-04T02:58:16.860Z,1001.21
2018-07-04T02:59:16.876Z,1001.23
2018-07-04T03:00:16.907Z,1001.19
2018-07-04T03:01:16.930Z,1001.15
2018-07-04T03:02:16.940Z,1001.16
2018-07-04T03:03:16.955Z,1001.17
2018-07-04T03:04:16.977Z,1001.19
2018-07-04T03:05:16.995Z,1001.17
2018-07-04T03:06:17.022Z,1001.17
2018-07-04T03:07:17.036Z,1001.18
2018-07-04T03:08:17.058Z,1001.16
2018-07-04T03:09:17.073Z,1001.15
2018-07-04T03:10:17.097Z,1001.20
2018-07-04T03:11:17.119Z,1001.18
2018-07-04T03:12:17.138Z,1001.20
2018-07-04T03:13:17.149Z,1001.18
2018-07-04T03:14:17.171Z,1001.16
2018-07-04T03:15:17.201Z,1001.18
2018-07-04T03:16:17.201Z,1001.18
2018-07-04T03:17:17.228Z,1001.13
2018-07-04T03:18:17.244Z,1001.15
2018-07-04T03:19:17.321Z,1001.14
2018-07-04T03:20:17.289Z,1001.14
2018-07-04T03:21:17.305Z,1001.15
2018-07-04T03:22:17.323Z,1001.14
2018-07-04T03:23:17.332Z,1001.14
2018-07-04T03:24:17.355Z,1001.13
2018-07-04T03:25:17.377Z,1001.17
2018-07-04T03:26:17.395Z,1001.16
2018-07-04T03:27:17.410Z,1001.14
2018-07-04T03:28:17.454Z,1001.19
2018-07-04T03:29:17.455Z,1001.17
2018-07-04T03:30:17.482Z,1001.17
2018-07-04T03:31:17.501Z,1001.16
2018-07-04T03:32:17.508Z,1001.16
2018-07-04T03:33:17.526Z,1001.19
2018-07-04T03:34:17.546Z,1001.16
2018-07-04T03:35:17.576Z,1001.18
2018-07-04T03:36:17.582Z,1001.18
2018-07-04T03:37:17.612Z,1001.18
2018-07-04T03:38:17.620Z,1001.22
2018-07-04T03:39:17.639Z,1001.19
2018-07-04T03:40:17.657Z,1001.23
2018-07-04T03:41:17.683Z,1001.24
2018-07-04T03:42:17.696Z,1001.21
2018-07-04T03:43:17.721Z,1001.20
2018-07-04T03:44:17.734Z,1001.21
2018-07-04T03:45:17.754Z,1001.23
2018-07-04T03:46:17.778Z,1001.22
2018-07-04T03:47:17.792Z,1001.25
2018-07-04T03:48:17.815Z,1001.23
2018-07-04T03:49:17.833Z,1001.23
2018-07-04T03:50:17.866Z,1001.23
2018-07-04T03:51:17.881Z,1001.22
2018-07-04T03:52:17.891Z,1001.21
2018-07-04T03:53:17.914Z,1001.24
2018-07-04T03:54:17.925Z,1001.25
2018-07-04T03:55:17.940Z,1001.25
2018-07-04T03:56:17.965Z,1001.28
2018-07-04T03:57:17.986Z,1001.27
2018-07-04T03:58:18.001Z,1001.26
2018-07-04T03:59:18.020Z,1001.29
2018-07-04T04:00:18.044Z,1001.30
2018-07-04T04:01:18.062Z,1001.29
2018-07-04T04:02:18.088Z,1001.34
2018-07-04T04:03:18.105Z,1001.32
2018-07-04T04:04:18.115Z,1001.34
2018-07-04T04:05:18.132Z,1001.36
2018-07-04T04:06:18.152Z,1001.33
2018-07-04T04:07:18.192Z,1001.34
2018-07-04T04:08:18.197Z,1001.36
2018-07-04T04:09:18.209Z,1001.38
2018-07-04T04:10:18.227Z,1001.41
2018-07-04T04:11:18.260Z,1001.43
2018-07-04T04:12:18.265Z,1001.43
2018-07-04T04:13:18.309Z,1001.41
2018-07-04T04:14:18.309Z,1001.40
2018-07-04T04:15:18.320Z,1001.36
2018-07-04T04:16:18.347Z,1001.36
2018-07-04T04:17:18.367Z,1001.35
2018-07-04T04:18:18.377Z,1001.40
2018-07-04T04:19:18.408Z,1001.41
2018-07-04T04:20:18.425Z,1001.40
2018-07-04T04:21:18.448Z,1001.44
2018-07-04T04:22:18.453Z,1001.43
2018-07-04T04:23:18.501Z,1001.47
2018-07-04T04:24:18.511Z,1001.43
2018-07-04T04:25:18.514Z,1001.44
2018-07-04T04:26:18.538Z,1001.47
2018-07-04T04:27:18.554Z,1001.42
2018-07-04T04:28:18.583Z,1001.44
2018-07-04T04:29:18.597Z,1001.45
2018-07-04T04:30:18.614Z,1001.43
2018-07-04T04:31:18.640Z,1001.45
2018-07-04T04:32:18.650Z,1001.45
2018-07-04T04:33:18.688Z,1001.46
2018-07-04T04:34:18.695Z,1001.46
2018-07-04T04:35:18.726Z,1001.50
2018-07-04T04:36:18.754Z,1001.47
2018-07-04T04:37:18.753Z,1001.49
2018-07-04T04:38:18.764Z,1001.45
2018-07-04T04:39:18.789Z,1001.44
2018-07-04T04:40:18.801Z,1001.48
2018-07-04T04:41:18.837Z,1001.53
2018-07-04T04:42:18.903Z,1001.49
2018-07-04T04:43:18.872Z,1001.50
2018-07-04T04:44:18.887Z,1001.44
2018-07-04T04:45:18.899Z,1001.45
2018-07-04T04:46:18.923Z,1001.46
2018-07-04T04:47:18.946Z,1001.46
2018-07-04T04:48:18.958Z,1001.47
2018-07-04T04:49:18.979Z,1001.46
2018-07-04T04:50:19.002Z,1001.46
2018-07-04T04:51:19.027Z,1001.46
2018-07-04T04:52:19.044Z,1001.46
2018-07-04T04:53:19.060Z,1001.49
2018-07-04T04:54:19.090Z,1001.49
2018-07-04T04:55:19.102Z,1001.52
2018-07-04T04:56:19.122Z,1001.56
2018-07-04T04:57:19.138Z,1001.77
2018-07-04T04:58:19.164Z,1002.12
2018-07-04T04:59:19.191Z,1002.31
2018-07-04T05:00:19.219Z,1002.33
2018-07-04T05:01:19.226Z,1002.34
2018-07-04T05:02:19.244Z,1002.40
2018-07-04T05:03:19.271Z,1002.39
2018-07-04T05:04:19.312Z,1002.38
2018-07-04T05:05:19.310Z,1002.39
2018-07-04T05:06:19.336Z,1002.42
2018-07-04T05:07:19.359Z,1002.45
2018-07-04T05:08:19.385Z,1002.43
2018-07-04T05:09:19.417Z,1002.50
2018-07-04T05:10:19.425Z,1002.47
2018-07-04T05:11:19.457Z,1002.41
2018-07-04T05:12:19.473Z,1002.41
2018-07-04T05:13:19.511Z,1002.46
2018-07-04T05:14:19.533Z,1002.45
2018-07-04T05:15:19.550Z,1002.53
2018-07-04T05:16:19.587Z,1002.51
2018-07-04T05:17:19.608Z,1002.51
2018-07-04T05:18:19.630Z,1002.46
2018-07-04T05:19:19.653Z,1002.44
2018-07-04T05:20:19.684Z,1002.42
2018-07-04T05:21:19.733Z,1002.45
2018-07-04T05:22:19.756Z,1002.44
2018-07-04T05:23:19.768Z,1002.44
2018-07-04T05:24:19.791Z,1002.42
2018-07-04T05:25:19.822Z,1002.42
2018-07-04T05:26:19.855Z,1002.43
2018-07-04T05:27:19.882Z,1002.48
2018-07-04T05:28:19.910Z,1002.54
2018-07-04T05:29:19.940Z,1002.57
2018-07-04T05:30:19.954Z,1002.52
2018-07-04T05:31:19.982Z,1002.47
2018-07-04T05:32:20.004Z,1002.52
2018-07-04T05:33:20.034Z,1002.49
2018-07-04T05:34:20.063Z,1002.23
2018-07-04T05:35:20.095Z,1001.94
2018-07-04T05:36:20.128Z,1001.91
2018-07-04T05:37:20.144Z,1001.95
2018-07-04T05:38:20.177Z,1002.01
2018-07-04T05:39:20.206Z,1002.08
2018-07-04T05:40:20.237Z,1002.10
2018-07-04T05:41:20.267Z,1002.16
2018-07-04T05:42:20.290Z,1002.15
2018-07-04T05:43:20.310Z,1001.97
2018-07-04T05:44:20.401Z,1001.93
2018-07-04T05:45:20.365Z,1002.04
2018-07-04T05:46:20.398Z,1001.92
2018-07-04T05:47:20.416Z,1001.97
2018-07-04T05:48:20.457Z,1002.17
2018-07-04T05:49:20.471Z,1002.32
2018-07-04T05:50:20.505Z,1002.40
2018-07-04T05:51:20.520Z,1002.50
2018-07-04T05:52:20.554Z,1002.72
2018-07-04T05:53:20.585Z,1003.05
2018-07-04T05:54:20.610Z,1003.13
2018-07-04T05:55:20.627Z,1003.17
2018-07-04T05:56:20.749Z,1003.26
2018-07-04T05:57:20.688Z,1003.36
2018-07-04T05:58:20.706Z,1003.36
2018-07-04T05:59:20.740Z,1003.37
2018-07-04T06:00:20.761Z,1003.46
2018-07-04T06:01:20.786Z,1003.51
2018-07-04T06:02:20.813Z,1003.64
2018-07-04T06:03:20.854Z,1003.78
2018-07-04T06:04:20.875Z,1003.84
2018-07-04T06:05:20.907Z,1003.82
2018-07-04T06:06:20.943Z,1003.97
2018-07-04T06:07:20.969Z,1004.04
2018-07-04T06:08:20.982Z,1004.16
2018-07-04T06:09:21.028Z,1004.31
2018-07-04T06:10:21.047Z,1004.42
2018-07-04T06:11:21.088Z,1004.55
2018-07-04T06:12:21.116Z,1004.56
2018-07-04T06:13:21.131Z,1004.46
2018-07-04T06:14:21.162Z,1004.39
2018-07-04T06:15:21.191Z,1004.13
2018-07-04T06:16:21.282Z,1004.18
2018-07-04T06:17:21.267Z,1004.08
2018-07-04T06:18:21.287Z,1004.20
2018-07-04T06:19:21.308Z,1004.33
2018-07-04T06:20:21.335Z,1004.37
2018-07-04T06:21:21.369Z,1004.51
2018-07-04T06:22:21.409Z,1004.31
2018-07-04T06:23:21.439Z,1003.73
2018-07-04T06:24:21.464Z,1003.48
2018-07-04T06:25:21.490Z,1003.80
2018-07-04T06:26:21.528Z,1004.58
2018-07-04T06:27:21.550Z,1004.43
2018-07-04T06:28:21.576Z,1004.16
2018-07-04T06:29:21.608Z,1003.92
2018-07-04T06:30:21.633Z,1004.04
2018-07-04T06:31:21.662Z,1004.24
2018-07-04T06:32:21.778Z,1004.56
2018-07-04T06:33:21.729Z,1004.87
2018-07-04T06:34:21.753Z,1005.09
2018-07-04T06:35:21.790Z,1005.04
2018-07-04T06:36:21.808Z,1004.96
2018-07-04T06:37:21.842Z,1004.89
2018-07-04T06:38:21.861Z,1004.70
2018-07-04T06:39:21.888Z,1003.69
2018-07-04T06:40:21.922Z,1003.44
2018-07-04T06:41:21.951Z,1003.51
2018-07-04T06:42:21.986Z,1004.26
2018-07-04T06:43:22.011Z,1003.95
2018-07-04T06:44:22.035Z,1004.26
2018-07-04T06:45:22.096Z,1004.66
2018-07-04T06:46:22.100Z,1005.72
2018-07-04T06:47:22.120Z,1007.06
2018-07-04T06:48:22.155Z,1006.85
2018-07-04T06:49:22.207Z,1006.34
2018-07-04T06:50:22.212Z,1007.09
2018-07-04T06:51:22.247Z,1007.38
2018-07-04T06:52:22.267Z,1007.63
2018-07-04T06:53:22.284Z,1007.86
2018-07-04T06:54:22.350Z,1008.30
2018-07-04T06:55:22.373Z,1008.87
2018-07-04T06:56:22.426Z,1009.16
2018-07-04T06:57:22.396Z,1008.53
2018-07-04T06:58:22.447Z,1008.40
2018-07-04T06:59:22.458Z,1007.71
2018-07-04T07:00:22.487Z,1007.75
2018-07-04T07:01:22.512Z,1007.36
2018-07-04T07:02:22.553Z,1010.10
2018-07-04T07:03:22.588Z,1009.63
2018-07-04T07:04:22.605Z,1008.73
2018-07-04T07:05:22.634Z,1008.70
2018-07-04T07:06:22.662Z,1008.99
2018-07-04T07:07:22.692Z,1008.67
2018-07-04T07:08:22.766Z,1006.93
2018-07-04T07:09:22.755Z,1007.47
2018-07-04T07:10:22.790Z,1008.76
2018-07-04T07:11:22.830Z,1009.82
2018-07-04T07:12:22.836Z,1011.09
2018-07-04T07:13:22.889Z,1011.42
2018-07-04T07:14:22.972Z,1010.69
2018-07-04T07:15:22.930Z,1011.18
2018-07-04T07:16:22.986Z,1012.19
2018-07-04T07:17:22.986Z,1011.80
2018-07-04T07:18:23.012Z,1010.81
2018-07-04T07:19:23.056Z,1010.61
2018-07-04T07:20:23.078Z,1010.75
2018-07-04T07:21:23.098Z,1011.51
2018-07-04T07:22:23.156Z,1012.16
2018-07-04T07:23:23.169Z,1012.01
2018-07-04T07:24:23.196Z,1012.08
2018-07-04T07:25:23.235Z,1012.24
2018-07-04T07:26:23.259Z,1012.43
2018-07-04T07:27:23.287Z,1011.62
2018-07-04T07:28:23.359Z,1011.04
2018-07-04T07:29:23.342Z,1010.91
2018-07-04T07:30:23.381Z,1010.76
2018-07-04T07:31:23.414Z,1010.67
2018-07-04T07:32:23.443Z,1010.48
2018-07-04T07:33:23.472Z,1010.78
2018-07-04T07:34:23.564Z,1011.09
2018-07-04T07:35:23.530Z,1011.10
2018-07-04T07:36:23.569Z,1011.45
2018-07-04T07:37:23.592Z,1012.00
2018-07-04T07:38:23.626Z,1012.37
2018-07-04T07:39:23.653Z,1012.03
2018-07-04T07:40:23.693Z,1011.57
2018-07-04T07:41:23.735Z,1011.41
2018-07-04T07:42:23.766Z,1011.42
2018-07-04T07:43:23.806Z,1011.06
2018-07-04T07:44:23.819Z,1010.68
2018-07-04T07:45:23.860Z,1010.08
2018-07-04T07:46:23.875Z,1010.08
2018-07-04T07:47:23.934Z,1011.07
2018-07-04T07:48:23.950Z,1010.89
2018-07-04T07:49:23.976Z,1010.81
2018-07-04T07:50:23.999Z,1011.48
2018-07-04T07:51:24.034Z,1011.12
2018-07-04T07:52:24.076Z,1010.62
2018-07-04T07:53:24.104Z,1009.21
2018-07-04T07:54:24.168Z,1008.98
2018-07-04T07:55:24.169Z,1010.70
2018-07-04T07:56:24.189Z,1011.46
2018-07-04T07:57:24.215Z,1011.13
2018-07-04T07:58:24.245Z,1011.40
2018-07-04T07:59:24.294Z,1010.88
2018-07-04T08:00:24.317Z,1011.15
2018-07-04T08:01:24.343Z,1011.80
2018-07-04T08:02:24.379Z,1011.11
2018-07-04T08:03:24.442Z,1011.32
2018-07-04T08:04:24.431Z,1010.32
2018-07-04T08:05:24.455Z,1010.85
2018-07-04T08:06:24.486Z,1011.26
2018-07-04T08:07:24.517Z,1011.09
2018-07-04T08:08:24.547Z,1010.22
2018-07-04T08:09:24.607Z,1009.18
2018-07-04T08:10:24.612Z,1009.95
2018-07-04T08:11:24.637Z,1010.40
2018-07-04T08:12:24.684Z,1010.52
2018-07-04T08:13:24.697Z,1010.05
2018-07-04T08:14:24.734Z,1010.13
2018-07-04T08:15:24.755Z,1011.34
2018-07-04T08:16:24.788Z,1012.78
2018-07-04T08:17:24.814Z,1013.59
2018-07-04T08:18:24.841Z,1014.20
2018-07-04T08:19:24.867Z,1014.05
2018-07-04T08:20:24.904Z,1013.99
2018-07-04T08:21:24.931Z,1012.88
2018-07-04T08:22:24.969Z,1012.30
2018-07-04T08:23:25.001Z,1013.10
2018-07-04T08:24:25.032Z,1013.12
2018-07-04T08:25:25.055Z,1011.37
2018-07-04T08:26:25.152Z,1011.96
2018-07-04T08:27:25.107Z,1013.60
2018-07-04T08:28:25.173Z,1014.56
2018-07-04T08:29:25.171Z,1015.27
2018-07-04T08:30:25.188Z,1015.23
2018-07-04T08:31:25.237Z,1014.79
2018-07-04T08:32:25.244Z,1014.58
2018-07-04T08:33:25.352Z,1013.51
2018-07-04T08:34:25.300Z,1012.40
2018-07-04T08:35:25.337Z,1012.66
2018-07-04T08:36:25.355Z,1008.13
2018-07-04T08:37:25.397Z,1002.18
2018-07-04T08:38:25.412Z,1001.64
2018-07-04T08:39:25.464Z,1001.54
2018-07-04T08:40:25.480Z,1001.51
2018-07-04T08:41:25.505Z,1001.53
2018-07-04T08:42:25.524Z,1001.49
2018-07-04T08:43:25.553Z,1001.46
2018-07-04T08:44:25.582Z,1001.43
2018-07-04T08:45:25.613Z,1001.41
2018-07-04T08:46:25.632Z,1001.35
2018-07-04T08:47:25.661Z,1001.33
2018-07-04T08:48:25.681Z,1001.32
2018-07-04T08:49:25.710Z,1001.29
2018-07-04T08:50:25.742Z,1001.30
2018-07-04T08:51:25.783Z,1001.26
2018-07-04T08:52:25.792Z,1001.23
2018-07-04T08:53:25.817Z,1001.23
2018-07-04T08:54:25.846Z,1001.16
2018-07-04T08:55:25.873Z,1001.18
2018-07-04T08:56:25.894Z,1001.21
2018-07-04T08:57:25.943Z,1001.20
2018-07-04T08:58:25.980Z,1001.19
2018-07-04T08:59:25.974Z,1001.20
2018-07-04T09:00:26.004Z,1001.20
2018-07-04T09:01:26.032Z,1001.21
2018-07-04T09:02:26.063Z,1001.20
2018-07-04T09:03:26.094Z,1001.20
2018-07-04T09:04:26.129Z,1001.21
2018-07-04T09:05:26.144Z,1001.18
2018-07-04T09:06:26.160Z,1001.16
2018-07-04T09:07:26.191Z,1001.20
2018-07-04T09:08:26.212Z,1001.19
2018-07-04T09:09:26.250Z,1001.19
2018-07-04T09:10:26.264Z,1001.17
2018-07-04T09:11:26.326Z,1001.18
2018-07-04T09:12:26.327Z,1001.20
2018-07-04T09:13:26.337Z,1001.22
2018-07-04T09:14:26.367Z,1001.24
2018-07-04T09:15:26.390Z,1001.22
2018-07-04T09:16:26.421Z,1001.26
2018-07-04T09:17:26.450Z,1001.29
2018-07-04T09:18:26.473Z,1001.32
2018-07-04T09:19:26.500Z,1001.39
2018-07-04T09:20:26.527Z,1001.38
2018-07-04T09:21:26.551Z,1001.39
2018-07-04T09:22:26.579Z,1001.41
2018-07-04T09:23:26.604Z,1001.40
2018-07-04T09:24:26.673Z,1001.41
2018-07-04T09:25:26.659Z,1001.44
2018-07-04T09:26:26.687Z,1001.45
2018-07-04T09:27:26.724Z,1001.44
2018-07-04T09:28:26.734Z,1001.47
2018-07-04T09:29:26.763Z,1001.47
2018-07-04T09:30:26.783Z,1001.50
2018-07-04T09:31:26.809Z,1001.50
2018-07-04T09:32:26.835Z,1001.52
2018-07-04T09:33:26.864Z,1001.47
2018-07-04T09:34:26.913Z,1001.44
2018-07-04T09:35:26.927Z,1001.47
2018-07-04T09:36:26.944Z,1001.49
2018-07-04T09:37:26.974Z,1001.49
2018-07-04T09:38:27.031Z,1001.53
2018-07-04T09:39:27.030Z,1001.59
2018-07-04T09:40:27.049Z,1001.61
2018-07-04T09:41:27.077Z,1001.65
2018-07-04T09:42:27.102Z,1001.63
2018-07-04T09:43:27.140Z,1001.63
2018-07-04T09:44:27.150Z,1001.62
2018-07-04T09:45:27.200Z,1001.60
2018-07-04T09:46:27.203Z,1001.67
2018-07-04T09:47:27.239Z,1001.74
2018-07-04T09:48:27.253Z,1001.67
2018-07-04T09:49:27.290Z,1001.66
2018-07-04T09:50:27.311Z,1001.62
2018-07-04T09:51:27.338Z,1001.56
2018-07-04T09:52:27.365Z,1001.55
2018-07-04T09:53:27.398Z,1001.48
2018-07-04T09:54:27.412Z,1001.42
2018-07-04T09:55:27.447Z,1001.42
2018-07-04T09:56:27.466Z,1001.42
2018-07-04T09:57:27.497Z,1001.41
2018-07-04T09:58:27.522Z,1001.35
2018-07-04T09:59:27.550Z,1001.25
2018-07-04T10:00:27.587Z,1001.23
2018-07-04T10:01:27.599Z,1001.18
2018-07-04T10:02:27.625Z,1001.24
2018-07-04T10:03:27.655Z,1001.19
2018-07-04T10:04:27.692Z,1001.20
2018-07-04T10:05:27.707Z,1001.28
2018-07-04T10:06:27.770Z,1001.31
2018-07-04T10:07:27.762Z,1001.35
2018-07-04T10:08:27.795Z,1001.35
2018-07-04T10:09:27.827Z,1001.30
2018-07-04T10:10:27.849Z,1001.30
2018-07-04T10:11:27.872Z,1001.30
2018-07-04T10:12:27.900Z,1001.28
2018-07-04T10:13:27.925Z,1001.25
2018-07-04T10:14:27.955Z,1001.24
2018-07-04T10:15:28.005Z,1001.19
2018-07-04T10:16:28.020Z,1001.17
2018-07-04T10:17:28.043Z,1001.07
2018-07-04T10:18:28.069Z,1001.08
2018-07-04T10:19:28.094Z,1001.04
2018-07-04T10:20:28.124Z,1000.99
2018-07-04T10:21:28.146Z,1000.94
2018-07-04T10:22:28.175Z,1000.94
2018-07-04T10:23:28.203Z,1000.86
2018-07-04T10:24:28.236Z,1000.81
2018-07-04T10:25:28.259Z,1000.78
2018-07-04T10:26:28.280Z,1000.79
2018-07-04T10:27:28.313Z,1000.75
2018-07-04T10:28:28.344Z,1000.76
2018-07-04T10:29:28.363Z,1000.75
2018-07-04T10:30:28.388Z,1000.81
2018-07-04T10:31:28.441Z,1000.87
2018-07-04T10:32:28.452Z,1000.90
2018-07-04T10:33:28.472Z,1000.88
2018-07-04T10:34:28.589Z,1000.91
2018-07-04T10:35:28.528Z,1000.89
2018-07-04T10:36:28.569Z,1000.83
2018-07-04T10:37:28.577Z,1000.81
2018-07-04T10:38:28.621Z,1000.77
2018-07-04T10:39:28.631Z,1000.76
2018-07-04T10:40:28.669Z,1000.76
2018-07-04T10:41:28.690Z,1000.75
2018-07-04T10:42:28.717Z,1000.75
2018-07-04T10:43:28.743Z,1000.73
2018-07-04T10:44:28.770Z,1000.74
2018-07-04T10:45:28.795Z,1000.69
2018-07-04T10:46:28.834Z,1000.71
2018-07-04T10:47:28.852Z,1000.68
2018-07-04T10:48:28.880Z,1000.67
2018-07-04T10:49:28.976Z,1000.68
2018-07-04T10:50:28.939Z,1000.67
2018-07-04T10:51:28.962Z,1000.62
2018-07-04T10:52:28.994Z,1000.62
2018-07-04T10:53:29.014Z,1000.61
2018-07-04T10:54:29.048Z,1000.58
2018-07-04T10:55:29.091Z,1000.61
2018-07-04T10:56:29.113Z,1000.64
2018-07-04T10:57:29.146Z,1000.66
2018-07-04T10:58:29.215Z,1000.70
2018-07-04T10:59:29.179Z,1000.70
2018-07-04T11:00:29.211Z,1000.70
2018-07-04T11:01:29.229Z,1000.67
2018-07-04T11:02:29.265Z,1000.72
2018-07-04T11:03:29.282Z,1000.74
2018-07-04T11:04:29.360Z,1000.75
2018-07-04T11:05:29.340Z,1000.80
2018-07-04T11:06:29.365Z,1000.80
2018-07-04T11:07:29.393Z,1000.81
2018-07-04T11:08:29.439Z,1000.74
2018-07-04T11:09:29.469Z,1000.79
2018-07-04T11:10:29.474Z,1000.74
2018-07-04T11:11:29.523Z,1000.77
2018-07-04T11:12:29.543Z,1000.75
2018-07-04T11:13:29.556Z,1000.74
2018-07-04T11:14:29.582Z,1000.74
2018-07-04T11:15:29.619Z,1000.73
2018-07-04T11:16:29.650Z,1000.69
2018-07-04T11:17:29.665Z,1000.69
2018-07-04T11:18:29.693Z,1000.65
2018-07-04T11:19:29.717Z,1000.64
2018-07-04T11:20:29.748Z,1000.61
2018-07-04T11:21:29.776Z,1000.61
2018-07-04T11:22:29.851Z,1000.60
2018-07-04T11:23:29.833Z,1000.59
2018-07-04T11:24:29.860Z,1000.59
2018-07-04T11:25:29.885Z,1000.63
2018-07-04T11:26:29.911Z,1000.61
2018-07-04T11:27:29.948Z,1000.61
2018-07-04T11:28:30.014Z,1000.62
2018-07-04T11:29:29.999Z,1000.59
2018-07-04T11:30:30.030Z,1000.60
2018-07-04T11:31:30.056Z,1000.59
2018-07-04T11:32:30.074Z,1000.53
2018-07-04T11:33:30.108Z,1000.58
2018-07-04T11:34:30.126Z,1000.56
2018-07-04T11:35:30.156Z,1000.59
2018-07-04T11:36:30.181Z,1000.57
2018-07-04T11:37:30.213Z,1000.60
2018-07-04T11:38:30.403Z,1000.61
2018-07-04T11:39:30.267Z,1000.57
2018-07-04T11:40:30.299Z,1000.57
2018-07-04T11:41:30.321Z,1000.61
2018-07-04T11:42:30.358Z,1000.63
2018-07-04T11:43:30.378Z,1000.64
2018-07-04T11:44:30.418Z,1000.63
2018-07-04T11:45:30.431Z,1000.63
2018-07-04T11:46:30.469Z,1000.64
2018-07-04T11:47:30.488Z,1000.57
2018-07-04T11:48:30.522Z,1000.61
2018-07-04T11:49:30.585Z,1000.59
2018-07-04T11:50:30.567Z,1000.50
2018-07-04T11:51:30.621Z,1000.46
2018-07-04T11:52:30.625Z,1000.40
2018-07-04T11:53:30.650Z,1000.36
2018-07-04T11:54:30.700Z,1000.38
2018-07-04T11:55:30.712Z,1000.37
2018-07-04T11:56:30.759Z,1000.36
2018-07-04T11:57:30.761Z,1000.35
2018-07-04T11:58:30.795Z,1000.35
2018-07-04T11:59:30.815Z,1000.26
2018-07-04T12:00:30.856Z,1000.24
2018-07-04T12:01:30.880Z,1000.24
2018-07-04T12:02:30.901Z,1000.24
2018-07-04T12:03:30.929Z,1000.24
2018-07-04T12:04:30.957Z,1000.23
2018-07-04T12:05:31.031Z,1000.17